Time;durP1;ratioP1;P1;durP2;ratioP2;P2;SDS_P1;SDS_P2;PMS_P1;PMS_P2;Temp;Humidity;BMP_temperature;BMP_pressure;BME280_temperature;BME280_humidity;BME280_pressure;Samples;Min_cycle;Max_cycle;Signal;HPM_P1;HPM_P2
2023/08/25 00:00:20;;;;;;;3.10;2.70;;;20.30;99.90;;;;;;5047017;28;20200;-65
2023/08/25 00:02:47;;;;;;;3.08;2.78;;;20.30;99.90;;;;;;5029367;28;20675;-65
2023/08/25 00:05:14;;;;;;;5.22;3.20;;;20.30;99.90;;;;;;5048289;28;20740;-64
2023/08/25 00:07:41;;;;;;;4.70;3.55;;;20.20;99.90;;;;;;5045277;28;20183;-65
2023/08/25 00:10:08;;;;;;;3.67;2.65;;;20.10;99.90;;;;;;5046668;28;20540;-65
2023/08/25 00:12:35;;;;;;;3.65;2.97;;;20.10;99.90;;;;;;5041582;28;20556;-65
2023/08/25 00:15:04;;;;;;;6.53;3.40;;;20.10;99.90;;;;;;5048233;28;20195;-64
2023/08/25 00:17:32;;;;;;;5.25;3.13;;;20.10;99.90;;;;;;5028324;28;20192;-64
2023/08/25 00:20:00;;;;;;;5.85;3.33;;;20.10;99.90;;;;;;5046916;28;20269;-65
2023/08/25 00:22:27;;;;;;;3.60;2.75;;;20.10;99.90;;;;;;5011599;28;20215;-63
2023/08/25 00:24:56;;;;;;;4.35;3.10;;;20.00;99.90;;;;;;5030531;28;20204;-66
2023/08/25 00:27:26;;;;;;;4.80;3.67;;;20.00;99.90;;;;;;5029708;28;20624;-65
2023/08/25 00:29:56;;;;;;;4.60;3.58;;;20.00;99.90;;;;;;5029267;28;20219;-65
2023/08/25 00:32:23;;;;;;;4.40;3.22;;;19.80;99.90;;;;;;5009699;28;20734;-65
2023/08/25 00:34:50;;;;;;;12.27;3.70;;;19.70;99.90;;;;;;5006211;28;20234;-64
2023/08/25 00:37:17;;;;;;;4.35;2.95;;;19.60;99.90;;;;;;5022006;28;20200;-64
2023/08/25 00:39:45;;;;;;;3.72;3.13;;;19.50;99.90;;;;;;5048626;28;20253;-64
2023/08/25 00:42:12;;;;;;;8.57;3.13;;;19.50;99.90;;;;;;5048434;28;20187;-64
2023/08/25 00:44:39;;;;;;;11.63;3.47;;;19.50;99.90;;;;;;5030973;28;20253;-64
2023/08/25 00:47:06;;;;;;;4.13;3.30;;;19.40;99.90;;;;;;5029478;28;20204;-65
2023/08/25 00:49:33;;;;;;;4.47;3.45;;;19.30;99.90;;;;;;5031071;28;20206;-65
2023/08/25 00:52:03;;;;;;;4.88;3.42;;;19.20;99.90;;;;;;5046746;28;20288;-66
2023/08/25 00:54:34;;;;;;;4.10;3.33;;;19.20;99.90;;;;;;5028298;28;20192;-64
2023/08/25 00:57:03;;;;;;;5.78;3.65;;;19.10;99.90;;;;;;5012231;28;20206;-66
2023/08/25 00:59:32;;;;;;;10.18;3.88;;;19.20;99.90;;;;;;5020906;28;20794;-66
2023/08/25 01:02:00;;;;;;;7.63;3.47;;;19.20;99.90;;;;;;5058544;22;24410;-58
2023/08/25 01:04:27;;;;;;;3.80;3.40;;;19.10;99.90;;;;;;5008895;28;20189;-62
2023/08/25 01:06:54;;;;;;;5.55;3.42;;;19.00;99.90;;;;;;4972243;28;20196;-59
2023/08/25 01:09:22;;;;;;;4.88;3.42;;;19.00;99.90;;;;;;4982980;28;20705;-60
2023/08/25 01:12:04;;;;;;;4.90;3.40;;;18.90;99.90;;;;;;5001317;28;20213;-59
2023/08/25 01:15:00;;;;;;;9.48;3.42;;;18.90;99.90;;;;;;5000396;28;20268;-60
2023/08/25 01:17:43;;;;;;;4.13;3.20;;;18.90;99.90;;;;;;4995815;28;20220;-59
2023/08/25 01:20:14;;;;;;;7.78;3.50;;;19.00;99.90;;;;;;4990974;28;20243;-59
2023/08/25 01:22:56;;;;;;;3.85;3.13;;;19.00;99.90;;;;;;5010091;28;20201;-60
2023/08/25 01:25:25;;;;;;;4.18;3.17;;;19.00;99.90;;;;;;4981061;28;20243;-61
2023/08/25 01:28:03;;;;;;;3.75;2.55;;;19.10;99.90;;;;;;4981282;28;20204;-61
2023/08/25 01:30:33;;;;;;;4.20;2.25;;;19.30;99.90;;;;;;4967097;28;21112;-60
2023/08/25 01:33:00;;;;;;;2.85;2.28;;;19.50;99.90;;;;;;4987245;28;20205;-61
2023/08/25 01:35:52;;;;;;;5.03;2.60;;;19.50;99.90;;;;;;4970852;28;20201;-60
2023/08/25 01:38:30;;;;;;;3.63;2.13;;;19.60;99.90;;;;;;4990479;28;20263;-61
2023/08/25 01:41:33;;;;;;;3.00;2.33;;;19.60;99.90;;;;;;4974795;28;20204;-61
2023/08/25 01:44:03;;;;;;;3.67;2.60;;;19.60;99.90;;;;;;4971771;28;20213;-60
2023/08/25 01:46:33;;;;;;;3.95;2.35;;;19.60;99.90;;;;;;4990653;28;20806;-60
2023/08/25 01:49:02;;;;;;;2.30;2.03;;;19.70;99.90;;;;;;4992424;28;20224;-60
2023/08/25 01:51:29;;;;;;;2.65;1.98;;;19.70;99.90;;;;;;4992455;28;20430;-60
2023/08/25 01:53:56;;;;;;;4.43;2.00;;;19.80;99.90;;;;;;5005779;28;20676;-60
2023/08/25 01:56:24;;;;;;;3.25;2.38;;;19.80;99.90;;;;;;5004980;28;20225;-61
2023/08/25 01:58:51;;;;;;;2.60;2.03;;;19.80;99.90;;;;;;4995131;28;20656;-61
